sensor_id;sensor_type;location;lat;lon;timestamp;temperature;humidity
5364;DHT22;2705;41.410;2.160;2022-09-09T00:00:17;26.00;99.90
5364;DHT22;2705;41.410;2.160;2022-09-09T00:02:53;25.70;99.90
5364;DHT22;2705;41.410;2.160;2022-09-09T00:05:28;25.80;99.90
5364;DHT22;2705;41.410;2.160;2022-09-09T00:08:00;25.90;99.90
5364;DHT22;2705;41.410;2.160;2022-09-09T00:10:34;26.00;99.90
5364;DHT22;2705;41.410;2.160;2022-09-09T00:13:16;26.00;99.90
5364;DHT22;2705;41.410;2.160;2022-09-09T00:15:55;25.80;99.90
5364;DHT22;2705;41.410;2.160;2022-09-09T00:18:31;25.90;99.90
5364;DHT22;2705;41.410;2.160;2022-09-09T00:21:06;26.00;99.90
5364;DHT22;2705;41.410;2.160;2022-09-09T00:23:38;26.00;99.90
5364;DHT22;2705;41.410;2.160;2022-09-09T00:26:13;25.80;99.90
5364;DHT22;2705;41.410;2.160;2022-09-09T00:28:48;25.90;99.90
5364;DHT22;2705;41.410;2.160;2022-09-09T00:31:24;25.90;99.90
5364;DHT22;2705;41.410;2.160;2022-09-09T00:33:55;25.90;99.90
5364;DHT22;2705;41.410;2.160;2022-09-09T00:36:27;25.70;99.90
5364;DHT22;2705;41.410;2.160;2022-09-09T00:38:59;25.60;99.90
5364;DHT22;2705;41.410;2.160;2022-09-09T00:41:36;25.70;99.90
5364;DHT22;2705;41.410;2.160;2022-09-09T00:44:21;25.80;99.90
5364;DHT22;2705;41.410;2.160;2022-09-09T00:47:04;25.90;99.90
5364;DHT22;2705;41.410;2.160;2022-09-09T00:49:46;26.00;99.90
5364;DHT22;2705;41.410;2.160;2022-09-09T00:52:30;25.90;99.90
5364;DHT22;2705;41.410;2.160;2022-09-09T00:55:07;25.80;99.90
5364;DHT22;2705;41.410;2.160;2022-09-09T00:57:39;25.90;99.90
5364;DHT22;2705;41.410;2.160;2022-09-09T01:00:22;25.80;99.90
5364;DHT22;2705;41.410;2.160;2022-09-09T01:03:25;25.80;99.90
5364;DHT22;2705;41.410;2.160;2022-09-09T01:06:02;25.70;99.90
5364;DHT22;2705;41.410;2.160;2022-09-09T01:08:48;25.90;99.90
5364;DHT22;2705;41.410;2.160;2022-09-09T01:11:22;25.90;99.90
5364;DHT22;2705;41.410;2.160;2022-09-09T01:13:58;25.80;99.90
5364;DHT22;2705;41.410;2.160;2022-09-09T01:16:31;25.70;99.90
5364;DHT22;2705;41.410;2.160;2022-09-09T01:19:03;25.80;99.90
5364;DHT22;2705;41.410;2.160;2022-09-09T01:21:41;25.60;99.90
5364;DHT22;2705;41.410;2.160;2022-09-09T01:24:24;25.50;99.90
5364;DHT22;2705;41.410;2.160;2022-09-09T01:27:15;25.60;99.90
5364;DHT22;2705;41.410;2.160;2022-09-09T01:29:45;25.70;99.90
5364;DHT22;2705;41.410;2.160;2022-09-09T01:32:38;25.50;99.90
5364;DHT22;2705;41.410;2.160;2022-09-09T01:35:12;25.50;99.90
5364;DHT22;2705;41.410;2.160;2022-09-09T01:37:44;25.40;99.90
5364;DHT22;2705;41.410;2.160;2022-09-09T01:40:13;25.40;99.90
5364;DHT22;2705;41.410;2.160;2022-09-09T01:42:44;25.40;99.90
5364;DHT22;2705;41.410;2.160;2022-09-09T01:45:13;25.70;99.90
5364;DHT22;2705;41.410;2.160;2022-09-09T01:47:43;25.70;99.90
5364;DHT22;2705;41.410;2.160;2022-09-09T01:50:19;25.70;99.90
5364;DHT22;2705;41.410;2.160;2022-09-09T01:52:52;25.70;99.90
5364;DHT22;2705;41.410;2.160;2022-09-09T01:55:30;25.50;99.90
5364;DHT22;2705;41.410;2.160;2022-09-09T01:58:17;25.50;99.90
5364;DHT22;2705;41.410;2.160;2022-09-09T02:01:10;25.50;99.90
5364;DHT22;2705;41.410;2.160;2022-09-09T02:03:44;25.50;99.90
5364;DHT22;2705;41.410;2.160;2022-09-09T02:06:25;25.50;99.90
5364;DHT22;2705;41.410;2.160;2022-09-09T02:09:05;25.50;99.90
5364;DHT22;2705;41.410;2.160;2022-09-09T02:11:35;25.40;99.90
5364;DHT22;2705;41.410;2.160;2022-09-09T02:14:19;25.40;99.90
5364;DHT22;2705;41.410;2.160;2022-09-09T02:16:52;25.30;99.90
5364;DHT22;2705;41.410;2.160;2022-09-09T02:19:33;25.00;99.90
5364;DHT22;2705;41.410;2.160;2022-09-09T02:22:13;25.10;99.90
5364;DHT22;2705;41.410;2.160;2022-09-09T02:24:44;25.20;99.90
5364;DHT22;2705;41.410;2.160;2022-09-09T02:27:22;25.10;99.90
5364;DHT22;2705;41.410;2.160;2022-09-09T02:29:55;25.10;99.90
5364;DHT22;2705;41.410;2.160;2022-09-09T02:32:35;25.20;99.90
5364;DHT22;2705;41.410;2.160;2022-09-09T02:35:12;25.30;99.90
5364;DHT22;2705;41.410;2.160;2022-09-09T02:37:44;25.20;99.90
5364;DHT22;2705;41.410;2.160;2022-09-09T02:40:16;25.20;99.90
5364;DHT22;2705;41.410;2.160;2022-09-09T02:42:49;25.20;99.90
5364;DHT22;2705;41.410;2.160;2022-09-09T02:45:24;25.20;99.90
5364;DHT22;2705;41.410;2.160;2022-09-09T02:48:01;25.20;99.90
5364;DHT22;2705;41.410;2.160;2022-09-09T02:50:33;25.10;99.90
5364;DHT22;2705;41.410;2.160;2022-09-09T02:53:11;25.10;99.90
5364;DHT22;2705;41.410;2.160;2022-09-09T02:55:47;25.00;99.90
5364;DHT22;2705;41.410;2.160;2022-09-09T02:58:20;24.90;99.90
5364;DHT22;2705;41.410;2.160;2022-09-09T03:01:04;25.00;99.90
5364;DHT22;2705;41.410;2.160;2022-09-09T03:03:34;25.10;99.90
5364;DHT22;2705;41.410;2.160;2022-09-09T03:06:08;24.90;99.90
5364;DHT22;2705;41.410;2.160;2022-09-09T03:08:37;24.80;99.90
5364;DHT22;2705;41.410;2.160;2022-09-09T03:11:09;25.10;99.90
5364;DHT22;2705;41.410;2.160;2022-09-09T03:13:38;25.30;99.90
5364;DHT22;2705;41.410;2.160;2022-09-09T03:16:08;25.20;99.90
5364;DHT22;2705;41.410;2.160;2022-09-09T03:18:42;25.10;99.90
5364;DHT22;2705;41.410;2.160;2022-09-09T03:21:13;25.10;99.90
5364;DHT22;2705;41.410;2.160;2022-09-09T03:23:43;25.10;99.90
5364;DHT22;2705;41.410;2.160;2022-09-09T03:26:12;25.20;99.90
5364;DHT22;2705;41.410;2.160;2022-09-09T03:28:45;25.20;99.90
5364;DHT22;2705;41.410;2.160;2022-09-09T03:31:19;25.20;99.90
5364;DHT22;2705;41.410;2.160;2022-09-09T03:33:49;25.20;99.90
5364;DHT22;2705;41.410;2.160;2022-09-09T03:36:19;25.10;99.90
5364;DHT22;2705;41.410;2.160;2022-09-09T03:38:48;25.00;99.90
5364;DHT22;2705;41.410;2.160;2022-09-09T03:41:18;24.90;99.90
5364;DHT22;2705;41.410;2.160;2022-09-09T03:43:47;25.00;99.90
5364;DHT22;2705;41.410;2.160;2022-09-09T03:46:16;25.10;99.90
5364;DHT22;2705;41.410;2.160;2022-09-09T03:48:47;25.00;99.90
5364;DHT22;2705;41.410;2.160;2022-09-09T03:51:16;25.00;99.90
5364;DHT22;2705;41.410;2.160;2022-09-09T03:53:46;25.00;99.90
5364;DHT22;2705;41.410;2.160;2022-09-09T03:56:15;25.00;99.90
5364;DHT22;2705;41.410;2.160;2022-09-09T03:58:45;24.90;99.90
5364;DHT22;2705;41.410;2.160;2022-09-09T04:01:14;25.00;99.90
5364;DHT22;2705;41.410;2.160;2022-09-09T04:03:48;24.90;99.90
5364;DHT22;2705;41.410;2.160;2022-09-09T04:06:17;24.80;99.90
5364;DHT22;2705;41.410;2.160;2022-09-09T04:08:49;24.60;99.90
5364;DHT22;2705;41.410;2.160;2022-09-09T04:11:21;24.80;99.90
5364;DHT22;2705;41.410;2.160;2022-09-09T04:13:52;24.80;99.90
5364;DHT22;2705;41.410;2.160;2022-09-09T04:16:21;24.80;99.90
5364;DHT22;2705;41.410;2.160;2022-09-09T04:18:52;24.80;99.90
5364;DHT22;2705;41.410;2.160;2022-09-09T04:21:21;24.80;99.90
5364;DHT22;2705;41.410;2.160;2022-09-09T04:23:50;24.70;99.90
5364;DHT22;2705;41.410;2.160;2022-09-09T04:26:20;24.70;99.90
5364;DHT22;2705;41.410;2.160;2022-09-09T04:28:49;24.80;99.90
5364;DHT22;2705;41.410;2.160;2022-09-09T04:31:20;24.70;99.90
5364;DHT22;2705;41.410;2.160;2022-09-09T04:33:55;24.60;99.90
5364;DHT22;2705;41.410;2.160;2022-09-09T04:36:26;24.30;99.90
5364;DHT22;2705;41.410;2.160;2022-09-09T04:38:59;24.20;99.90
5364;DHT22;2705;41.410;2.160;2022-09-09T04:41:29;24.30;99.90
5364;DHT22;2705;41.410;2.160;2022-09-09T04:43:59;24.40;99.90
5364;DHT22;2705;41.410;2.160;2022-09-09T04:46:28;24.50;99.90
5364;DHT22;2705;41.410;2.160;2022-09-09T04:48:59;24.60;99.90
5364;DHT22;2705;41.410;2.160;2022-09-09T04:51:30;24.40;99.90
5364;DHT22;2705;41.410;2.160;2022-09-09T04:54:00;24.40;99.90
5364;DHT22;2705;41.410;2.160;2022-09-09T04:56:29;24.40;99.90
5364;DHT22;2705;41.410;2.160;2022-09-09T04:58:59;24.40;99.90
5364;DHT22;2705;41.410;2.160;2022-09-09T05:01:42;24.40;99.90
5364;DHT22;2705;41.410;2.160;2022-09-09T05:04:13;24.40;99.90
5364;DHT22;2705;41.410;2.160;2022-09-09T05:06:43;24.50;99.90
5364;DHT22;2705;41.410;2.160;2022-09-09T05:09:13;24.40;99.90
5364;DHT22;2705;41.410;2.160;2022-09-09T05:11:44;24.40;99.90
5364;DHT22;2705;41.410;2.160;2022-09-09T05:14:23;24.40;99.90
5364;DHT22;2705;41.410;2.160;2022-09-09T05:16:52;24.40;99.90
5364;DHT22;2705;41.410;2.160;2022-09-09T05:19:24;24.40;99.90
5364;DHT22;2705;41.410;2.160;2022-09-09T05:21:54;24.40;99.90
5364;DHT22;2705;41.410;2.160;2022-09-09T05:24:30;24.50;99.90
5364;DHT22;2705;41.410;2.160;2022-09-09T05:27:02;24.50;99.90
5364;DHT22;2705;41.410;2.160;2022-09-09T05:29:33;24.40;99.90
5364;DHT22;2705;41.410;2.160;2022-09-09T05:32:04;24.40;99.90
5364;DHT22;2705;41.410;2.160;2022-09-09T05:34:37;24.40;99.90
5364;DHT22;2705;41.410;2.160;2022-09-09T05:37:07;24.30;99.90
5364;DHT22;2705;41.410;2.160;2022-09-09T05:39:37;24.40;99.90
5364;DHT22;2705;41.410;2.160;2022-09-09T05:42:06;24.30;99.90
5364;DHT22;2705;41.410;2.160;2022-09-09T05:44:35;24.30;99.90
5364;DHT22;2705;41.410;2.160;2022-09-09T05:47:05;24.30;99.90
5364;DHT22;2705;41.410;2.160;2022-09-09T05:49:37;24.20;99.90
5364;DHT22;2705;41.410;2.160;2022-09-09T05:52:06;24.30;99.90
5364;DHT22;2705;41.410;2.160;2022-09-09T05:54:35;24.30;99.90
5364;DHT22;2705;41.410;2.160;2022-09-09T05:57:05;24.40;99.90
5364;DHT22;2705;41.410;2.160;2022-09-09T05:59:34;24.30;99.90
5364;DHT22;2705;41.410;2.160;2022-09-09T06:02:03;24.40;99.90
5364;DHT22;2705;41.410;2.160;2022-09-09T06:04:37;24.40;99.90
5364;DHT22;2705;41.410;2.160;2022-09-09T06:07:06;24.50;99.90
5364;DHT22;2705;41.410;2.160;2022-09-09T06:09:35;24.40;99.90
5364;DHT22;2705;41.410;2.160;2022-09-09T06:12:07;24.40;99.90
5364;DHT22;2705;41.410;2.160;2022-09-09T06:14:37;24.30;99.90
5364;DHT22;2705;41.410;2.160;2022-09-09T06:17:13;24.30;99.90
5364;DHT22;2705;41.410;2.160;2022-09-09T06:19:44;24.20;99.90
5364;DHT22;2705;41.410;2.160;2022-09-09T06:22:13;24.30;99.90
5364;DHT22;2705;41.410;2.160;2022-09-09T06:24:42;24.30;99.90
5364;DHT22;2705;41.410;2.160;2022-09-09T06:27:12;24.30;99.90
5364;DHT22;2705;41.410;2.160;2022-09-09T06:29:42;24.30;99.90
5364;DHT22;2705;41.410;2.160;2022-09-09T06:32:11;24.30;99.90
5364;DHT22;2705;41.410;2.160;2022-09-09T06:34:40;24.30;99.90
5364;DHT22;2705;41.410;2.160;2022-09-09T06:37:11;24.30;99.90
5364;DHT22;2705;41.410;2.160;2022-09-09T06:39:46;24.40;99.90
5364;DHT22;2705;41.410;2.160;2022-09-09T06:42:16;24.50;99.90
5364;DHT22;2705;41.410;2.160;2022-09-09T06:44:58;24.50;99.90
5364;DHT22;2705;41.410;2.160;2022-09-09T06:47:41;24.60;99.90
5364;DHT22;2705;41.410;2.160;2022-09-09T06:50:11;24.60;99.90
5364;DHT22;2705;41.410;2.160;2022-09-09T06:52:41;24.70;99.90
5364;DHT22;2705;41.410;2.160;2022-09-09T06:55:10;24.80;99.90
5364;DHT22;2705;41.410;2.160;2022-09-09T06:57:40;24.90;99.90
5364;DHT22;2705;41.410;2.160;2022-09-09T07:00:15;25.00;99.90
5364;DHT22;2705;41.410;2.160;2022-09-09T07:02:45;25.10;99.90
5364;DHT22;2705;41.410;2.160;2022-09-09T07:05:15;25.20;99.90
5364;DHT22;2705;41.410;2.160;2022-09-09T07:07:47;25.20;99.90
5364;DHT22;2705;41.410;2.160;2022-09-09T07:10:19;25.30;99.90
5364;DHT22;2705;41.410;2.160;2022-09-09T07:12:50;25.50;99.90
5364;DHT22;2705;41.410;2.160;2022-09-09T07:15:23;25.60;99.90
5364;DHT22;2705;41.410;2.160;2022-09-09T07:17:53;25.60;99.90
5364;DHT22;2705;41.410;2.160;2022-09-09T07:20:22;25.70;99.90
5364;DHT22;2705;41.410;2.160;2022-09-09T07:22:56;26.00;99.90
5364;DHT22;2705;41.410;2.160;2022-09-09T07:25:26;26.20;99.90
5364;DHT22;2705;41.410;2.160;2022-09-09T07:27:57;26.40;99.90
5364;DHT22;2705;41.410;2.160;2022-09-09T07:30:27;26.50;99.90
5364;DHT22;2705;41.410;2.160;2022-09-09T07:32:57;26.60;99.90
5364;DHT22;2705;41.410;2.160;2022-09-09T07:35:27;26.60;99.90
5364;DHT22;2705;41.410;2.160;2022-09-09T07:38:00;26.70;99.90
5364;DHT22;2705;41.410;2.160;2022-09-09T07:40:29;26.70;99.90
5364;DHT22;2705;41.410;2.160;2022-09-09T07:42:59;26.60;99.90
5364;DHT22;2705;41.410;2.160;2022-09-09T07:45:28;26.50;99.90
5364;DHT22;2705;41.410;2.160;2022-09-09T07:48:00;26.40;99.90
5364;DHT22;2705;41.410;2.160;2022-09-09T07:50:30;26.30;99.90
5364;DHT22;2705;41.410;2.160;2022-09-09T07:53:00;26.30;99.90
5364;DHT22;2705;41.410;2.160;2022-09-09T07:55:30;26.20;99.90
5364;DHT22;2705;41.410;2.160;2022-09-09T07:57:59;26.20;99.90
5364;DHT22;2705;41.410;2.160;2022-09-09T08:00:29;26.10;99.90
5364;DHT22;2705;41.410;2.160;2022-09-09T08:02:58;26.20;99.90
5364;DHT22;2705;41.410;2.160;2022-09-09T08:05:30;26.40;99.90
5364;DHT22;2705;41.410;2.160;2022-09-09T08:08:01;26.60;99.90
5364;DHT22;2705;41.410;2.160;2022-09-09T08:10:31;26.50;99.90
5364;DHT22;2705;41.410;2.160;2022-09-09T08:13:01;26.50;99.90
5364;DHT22;2705;41.410;2.160;2022-09-09T08:15:47;26.70;99.90
5364;DHT22;2705;41.410;2.160;2022-09-09T08:18:19;26.80;99.90
5364;DHT22;2705;41.410;2.160;2022-09-09T08:20:49;27.10;99.90
5364;DHT22;2705;41.410;2.160;2022-09-09T08:23:20;27.20;99.90
5364;DHT22;2705;41.410;2.160;2022-09-09T08:25:50;27.20;99.90
5364;DHT22;2705;41.410;2.160;2022-09-09T08:28:19;27.10;99.90
5364;DHT22;2705;41.410;2.160;2022-09-09T08:30:49;27.10;99.90
5364;DHT22;2705;41.410;2.160;2022-09-09T08:33:18;27.50;99.90
5364;DHT22;2705;41.410;2.160;2022-09-09T08:35:50;27.70;99.90
5364;DHT22;2705;41.410;2.160;2022-09-09T08:38:22;27.60;99.90
5364;DHT22;2705;41.410;2.160;2022-09-09T08:40:52;27.90;99.90
5364;DHT22;2705;41.410;2.160;2022-09-09T08:43:29;28.00;99.90
5364;DHT22;2705;41.410;2.160;2022-09-09T08:46:04;27.90;99.90
5364;DHT22;2705;41.410;2.160;2022-09-09T08:48:48;27.50;99.90
5364;DHT22;2705;41.410;2.160;2022-09-09T08:51:26;27.60;99.90
5364;DHT22;2705;41.410;2.160;2022-09-09T08:53:59;27.80;99.90
5364;DHT22;2705;41.410;2.160;2022-09-09T08:56:31;27.90;99.90
5364;DHT22;2705;41.410;2.160;2022-09-09T08:59:03;27.90;99.90
5364;DHT22;2705;41.410;2.160;2022-09-09T09:01:45;28.10;99.90
5364;DHT22;2705;41.410;2.160;2022-09-09T09:04:53;28.00;99.90
5364;DHT22;2705;41.410;2.160;2022-09-09T09:07:36;27.70;99.90
5364;DHT22;2705;41.410;2.160;2022-09-09T09:10:16;27.80;99.90
5364;DHT22;2705;41.410;2.160;2022-09-09T09:13:14;28.00;99.90
5364;DHT22;2705;41.410;2.160;2022-09-09T09:15:50;28.00;99.90
5364;DHT22;2705;41.410;2.160;2022-09-09T09:18:21;28.20;99.90
5364;DHT22;2705;41.410;2.160;2022-09-09T09:20:59;28.40;99.90
5364;DHT22;2705;41.410;2.160;2022-09-09T09:23:39;28.50;99.90
5364;DHT22;2705;41.410;2.160;2022-09-09T09:26:12;28.40;99.90
5364;DHT22;2705;41.410;2.160;2022-09-09T09:28:42;28.40;99.90
5364;DHT22;2705;41.410;2.160;2022-09-09T09:31:15;28.30;99.90
5364;DHT22;2705;41.410;2.160;2022-09-09T09:33:49;28.30;99.90
5364;DHT22;2705;41.410;2.160;2022-09-09T09:36:21;28.10;99.90
5364;DHT22;2705;41.410;2.160;2022-09-09T09:38:55;28.00;99.90
5364;DHT22;2705;41.410;2.160;2022-09-09T09:41:47;28.10;99.90
5364;DHT22;2705;41.410;2.160;2022-09-09T09:44:23;28.30;99.90
5364;DHT22;2705;41.410;2.160;2022-09-09T09:47:05;28.50;99.90
5364;DHT22;2705;41.410;2.160;2022-09-09T09:49:35;28.70;99.90
5364;DHT22;2705;41.410;2.160;2022-09-09T09:52:05;28.60;99.90
5364;DHT22;2705;41.410;2.160;2022-09-09T09:54:38;28.50;99.90
5364;DHT22;2705;41.410;2.160;2022-09-09T09:57:11;28.60;99.90
5364;DHT22;2705;41.410;2.160;2022-09-09T09:59:42;28.60;99.90
5364;DHT22;2705;41.410;2.160;2022-09-09T10:02:22;28.00;99.90
5364;DHT22;2705;41.410;2.160;2022-09-09T10:05:08;28.20;99.90
5364;DHT22;2705;41.410;2.160;2022-09-09T10:07:46;28.20;99.90
5364;DHT22;2705;41.410;2.160;2022-09-09T10:10:20;27.90;99.90
5364;DHT22;2705;41.410;2.160;2022-09-09T10:12:59;28.30;99.90
5364;DHT22;2705;41.410;2.160;2022-09-09T10:15:37;28.50;99.90
5364;DHT22;2705;41.410;2.160;2022-09-09T10:18:35;28.30;99.90
5364;DHT22;2705;41.410;2.160;2022-09-09T10:21:14;28.10;99.90
5364;DHT22;2705;41.410;2.160;2022-09-09T10:24:04;28.30;99.90
5364;DHT22;2705;41.410;2.160;2022-09-09T10:26:42;28.30;99.90
5364;DHT22;2705;41.410;2.160;2022-09-09T10:29:38;28.30;99.90
5364;DHT22;2705;41.410;2.160;2022-09-09T10:32:27;28.30;99.90
5364;DHT22;2705;41.410;2.160;2022-09-09T10:35:04;28.40;99.90
5364;DHT22;2705;41.410;2.160;2022-09-09T10:38:12;28.50;99.90
5364;DHT22;2705;41.410;2.160;2022-09-09T10:40:46;28.50;99.90
5364;DHT22;2705;41.410;2.160;2022-09-09T10:43:31;28.70;99.90
5364;DHT22;2705;41.410;2.160;2022-09-09T10:46:08;29.10;99.90
5364;DHT22;2705;41.410;2.160;2022-09-09T10:48:53;29.20;99.90
5364;DHT22;2705;41.410;2.160;2022-09-09T10:51:33;28.90;99.90
5364;DHT22;2705;41.410;2.160;2022-09-09T10:54:27;28.50;99.90
5364;DHT22;2705;41.410;2.160;2022-09-09T10:57:03;28.90;99.90
5364;DHT22;2705;41.410;2.160;2022-09-09T10:59:36;28.70;99.90
5364;DHT22;2705;41.410;2.160;2022-09-09T11:02:15;28.60;99.90
5364;DHT22;2705;41.410;2.160;2022-09-09T11:04:51;28.70;99.90
5364;DHT22;2705;41.410;2.160;2022-09-09T11:07:28;28.80;99.90
5364;DHT22;2705;41.410;2.160;2022-09-09T11:10:02;29.20;99.90
5364;DHT22;2705;41.410;2.160;2022-09-09T11:12:37;29.20;99.90
5364;DHT22;2705;41.410;2.160;2022-09-09T11:15:16;29.20;99.90
5364;DHT22;2705;41.410;2.160;2022-09-09T11:17:50;29.00;99.90
5364;DHT22;2705;41.410;2.160;2022-09-09T11:20:22;29.30;99.90
5364;DHT22;2705;41.410;2.160;2022-09-09T11:22:55;29.40;99.90
5364;DHT22;2705;41.410;2.160;2022-09-09T11:25:31;29.20;99.90
5364;DHT22;2705;41.410;2.160;2022-09-09T11:28:24;29.20;99.90
5364;DHT22;2705;41.410;2.160;2022-09-09T11:31:10;29.10;99.90
5364;DHT22;2705;41.410;2.160;2022-09-09T11:37:11;29.20;99.90
5364;DHT22;2705;41.410;2.160;2022-09-09T11:39:59;29.30;99.90
5364;DHT22;2705;41.410;2.160;2022-09-09T11:42:29;28.50;99.90
5364;DHT22;2705;41.410;2.160;2022-09-09T11:45:09;28.50;99.90
5364;DHT22;2705;41.410;2.160;2022-09-09T11:47:38;28.70;99.90
5364;DHT22;2705;41.410;2.160;2022-09-09T11:50:22;28.70;99.90
5364;DHT22;2705;41.410;2.160;2022-09-09T11:53:05;28.80;99.90
5364;DHT22;2705;41.410;2.160;2022-09-09T11:55:35;28.70;99.90
5364;DHT22;2705;41.410;2.160;2022-09-09T11:58:05;28.70;99.90
5364;DHT22;2705;41.410;2.160;2022-09-09T12:00:45;28.60;99.90
5364;DHT22;2705;41.410;2.160;2022-09-09T12:03:37;28.30;99.90
5364;DHT22;2705;41.410;2.160;2022-09-09T12:06:14;28.00;99.90
5364;DHT22;2705;41.410;2.160;2022-09-09T12:08:48;27.40;99.90
5364;DHT22;2705;41.410;2.160;2022-09-09T12:11:26;27.40;99.90
5364;DHT22;2705;41.410;2.160;2022-09-09T12:13:59;27.70;99.90
5364;DHT22;2705;41.410;2.160;2022-09-09T12:16:32;27.90;99.90
5364;DHT22;2705;41.410;2.160;2022-09-09T12:19:15;28.10;99.90
5364;DHT22;2705;41.410;2.160;2022-09-09T12:22:00;27.70;99.90
5364;DHT22;2705;41.410;2.160;2022-09-09T12:24:33;27.60;99.90
5364;DHT22;2705;41.410;2.160;2022-09-09T12:27:09;28.00;99.90
5364;DHT22;2705;41.410;2.160;2022-09-09T12:29:44;28.50;99.90
5364;DHT22;2705;41.410;2.160;2022-09-09T12:32:22;28.30;99.90
5364;DHT22;2705;41.410;2.160;2022-09-09T12:34:55;28.40;99.90
5364;DHT22;2705;41.410;2.160;2022-09-09T12:37:33;28.70;99.90
5364;DHT22;2705;41.410;2.160;2022-09-09T12:40:05;28.90;99.90
5364;DHT22;2705;41.410;2.160;2022-09-09T12:42:40;28.60;99.90
5364;DHT22;2705;41.410;2.160;2022-09-09T12:45:16;28.60;99.90
5364;DHT22;2705;41.410;2.160;2022-09-09T12:47:49;28.30;99.90
5364;DHT22;2705;41.410;2.160;2022-09-09T12:50:22;28.50;99.90
5364;DHT22;2705;41.410;2.160;2022-09-09T12:52:56;28.60;99.90
5364;DHT22;2705;41.410;2.160;2022-09-09T12:55:29;28.40;99.90
5364;DHT22;2705;41.410;2.160;2022-09-09T12:58:01;28.30;99.90
5364;DHT22;2705;41.410;2.160;2022-09-09T13:00:34;28.50;99.90
5364;DHT22;2705;41.410;2.160;2022-09-09T13:03:16;28.80;99.90
5364;DHT22;2705;41.410;2.160;2022-09-09T13:05:46;29.00;99.90
5364;DHT22;2705;41.410;2.160;2022-09-09T13:08:17;29.00;99.90
5364;DHT22;2705;41.410;2.160;2022-09-09T13:10:50;28.50;99.90
5364;DHT22;2705;41.410;2.160;2022-09-09T13:13:33;28.00;99.90
5364;DHT22;2705;41.410;2.160;2022-09-09T13:16:05;28.40;99.90
5364;DHT22;2705;41.410;2.160;2022-09-09T13:18:39;27.80;99.90
5364;DHT22;2705;41.410;2.160;2022-09-09T13:21:09;28.20;99.90
5364;DHT22;2705;41.410;2.160;2022-09-09T13:23:40;28.60;99.90
5364;DHT22;2705;41.410;2.160;2022-09-09T13:26:22;28.90;99.90
5364;DHT22;2705;41.410;2.160;2022-09-09T13:28:52;28.80;99.90
5364;DHT22;2705;41.410;2.160;2022-09-09T13:31:23;29.00;99.90
5364;DHT22;2705;41.410;2.160;2022-09-09T13:33:55;29.10;99.90
5364;DHT22;2705;41.410;2.160;2022-09-09T13:36:29;28.90;99.90
5364;DHT22;2705;41.410;2.160;2022-09-09T13:39:02;28.80;99.90
5364;DHT22;2705;41.410;2.160;2022-09-09T13:41:33;28.60;99.90
5364;DHT22;2705;41.410;2.160;2022-09-09T13:44:03;28.70;99.90
5364;DHT22;2705;41.410;2.160;2022-09-09T13:46:35;29.10;99.90
5364;DHT22;2705;41.410;2.160;2022-09-09T13:49:20;28.90;99.90
5364;DHT22;2705;41.410;2.160;2022-09-09T13:51:50;28.40;99.90
5364;DHT22;2705;41.410;2.160;2022-09-09T13:54:22;27.80;99.90
5364;DHT22;2705;41.410;2.160;2022-09-09T13:56:52;28.10;99.90
5364;DHT22;2705;41.410;2.160;2022-09-09T13:59:22;28.10;99.90
5364;DHT22;2705;41.410;2.160;2022-09-09T14:02:08;27.60;99.90
5364;DHT22;2705;41.410;2.160;2022-09-09T14:04:38;28.00;99.90
5364;DHT22;2705;41.410;2.160;2022-09-09T14:07:11;28.20;99.90
5364;DHT22;2705;41.410;2.160;2022-09-09T14:09:43;28.10;99.90
5364;DHT22;2705;41.410;2.160;2022-09-09T14:12:13;28.00;99.90
5364;DHT22;2705;41.410;2.160;2022-09-09T14:14:42;27.90;99.90
5364;DHT22;2705;41.410;2.160;2022-09-09T14:17:12;27.30;99.90
5364;DHT22;2705;41.410;2.160;2022-09-09T14:19:41;27.40;99.90
5364;DHT22;2705;41.410;2.160;2022-09-09T14:22:13;27.70;99.90
5364;DHT22;2705;41.410;2.160;2022-09-09T14:24:44;27.40;99.90
5364;DHT22;2705;41.410;2.160;2022-09-09T14:27:14;27.30;99.90
5364;DHT22;2705;41.410;2.160;2022-09-09T14:29:43;27.20;99.90
5364;DHT22;2705;41.410;2.160;2022-09-09T14:32:13;27.20;99.90
5364;DHT22;2705;41.410;2.160;2022-09-09T14:34:42;27.60;99.90
5364;DHT22;2705;41.410;2.160;2022-09-09T14:37:11;27.90;99.90
5364;DHT22;2705;41.410;2.160;2022-09-09T14:39:40;28.10;99.90
5364;DHT22;2705;41.410;2.160;2022-09-09T14:42:13;28.10;99.90
5364;DHT22;2705;41.410;2.160;2022-09-09T14:44:42;28.20;99.90
5364;DHT22;2705;41.410;2.160;2022-09-09T14:47:11;28.00;99.90
5364;DHT22;2705;41.410;2.160;2022-09-09T14:49:40;28.10;99.90
5364;DHT22;2705;41.410;2.160;2022-09-09T14:52:13;27.70;99.90
5364;DHT22;2705;41.410;2.160;2022-09-09T14:54:42;27.90;99.90
5364;DHT22;2705;41.410;2.160;2022-09-09T14:57:13;27.80;99.90
5364;DHT22;2705;41.410;2.160;2022-09-09T14:59:42;27.50;99.90
5364;DHT22;2705;41.410;2.160;2022-09-09T15:02:11;27.40;99.90
5364;DHT22;2705;41.410;2.160;2022-09-09T15:04:41;27.10;99.90
5364;DHT22;2705;41.410;2.160;2022-09-09T15:07:12;26.90;99.90
5364;DHT22;2705;41.410;2.160;2022-09-09T15:09:40;27.00;99.90
5364;DHT22;2705;41.410;2.160;2022-09-09T15:12:09;26.90;99.90
5364;DHT22;2705;41.410;2.160;2022-09-09T15:14:40;26.50;99.90
5364;DHT22;2705;41.410;2.160;2022-09-09T15:17:10;26.30;99.90
5364;DHT22;2705;41.410;2.160;2022-09-09T15:19:39;26.10;99.90
5364;DHT22;2705;41.410;2.160;2022-09-09T15:22:09;26.10;99.90
5364;DHT22;2705;41.410;2.160;2022-09-09T15:24:38;26.30;99.90
5364;DHT22;2705;41.410;2.160;2022-09-09T15:27:07;26.50;99.90
5364;DHT22;2705;41.410;2.160;2022-09-09T15:29:37;26.50;99.90
5364;DHT22;2705;41.410;2.160;2022-09-09T15:32:08;26.60;99.90
5364;DHT22;2705;41.410;2.160;2022-09-09T15:34:37;26.80;99.90
5364;DHT22;2705;41.410;2.160;2022-09-09T15:37:06;26.60;99.90
5364;DHT22;2705;41.410;2.160;2022-09-09T15:39:38;26.60;99.90
5364;DHT22;2705;41.410;2.160;2022-09-09T15:42:07;26.70;99.90
5364;DHT22;2705;41.410;2.160;2022-09-09T15:44:40;26.60;99.90
5364;DHT22;2705;41.410;2.160;2022-09-09T15:47:12;26.40;99.90
5364;DHT22;2705;41.410;2.160;2022-09-09T15:49:42;26.30;99.90
5364;DHT22;2705;41.410;2.160;2022-09-09T15:52:11;26.50;99.90
5364;DHT22;2705;41.410;2.160;2022-09-09T15:54:40;26.40;99.90
5364;DHT22;2705;41.410;2.160;2022-09-09T15:57:12;26.50;99.90
5364;DHT22;2705;41.410;2.160;2022-09-09T15:59:41;26.50;99.90
5364;DHT22;2705;41.410;2.160;2022-09-09T16:02:14;26.70;99.90
5364;DHT22;2705;41.410;2.160;2022-09-09T16:04:43;26.20;99.90
5364;DHT22;2705;41.410;2.160;2022-09-09T16:07:12;26.20;99.90
5364;DHT22;2705;41.410;2.160;2022-09-09T16:09:41;26.10;99.90
5364;DHT22;2705;41.410;2.160;2022-09-09T16:12:11;26.30;99.90
5364;DHT22;2705;41.410;2.160;2022-09-09T16:14:40;26.20;99.90
5364;DHT22;2705;41.410;2.160;2022-09-09T16:17:09;26.00;99.90
5364;DHT22;2705;41.410;2.160;2022-09-09T16:19:40;26.20;99.90
5364;DHT22;2705;41.410;2.160;2022-09-09T16:22:09;26.40;99.90
5364;DHT22;2705;41.410;2.160;2022-09-09T16:24:38;26.20;99.90
5364;DHT22;2705;41.410;2.160;2022-09-09T16:27:07;26.30;99.90
5364;DHT22;2705;41.410;2.160;2022-09-09T16:29:36;26.10;99.90
5364;DHT22;2705;41.410;2.160;2022-09-09T16:32:06;26.40;99.90
5364;DHT22;2705;41.410;2.160;2022-09-09T16:34:35;26.50;99.90
5364;DHT22;2705;41.410;2.160;2022-09-09T16:37:06;26.50;99.90
5364;DHT22;2705;41.410;2.160;2022-09-09T16:39:35;26.10;99.90
5364;DHT22;2705;41.410;2.160;2022-09-09T16:42:04;26.20;99.90
5364;DHT22;2705;41.410;2.160;2022-09-09T16:44:33;26.30;99.90
5364;DHT22;2705;41.410;2.160;2022-09-09T16:47:03;26.00;99.90